createdAt,value
2022-08-05T00:02:22.174Z,4.22
2022-08-05T00:04:55.880Z,4.03
2022-08-05T00:07:59.216Z,4.20
2022-08-05T00:10:11.382Z,4.22
2022-08-05T00:12:55.974Z,4.10
2022-08-05T00:15:55.879Z,4.15
2022-08-05T00:18:21.563Z,3.83
2022-08-05T00:20:49.409Z,4.30
2022-08-05T00:23:16.781Z,3.95
2022-08-05T00:25:45.584Z,4.63
2022-08-05T00:28:13.880Z,3.78
2022-08-05T00:30:44.021Z,3.85
2022-08-05T00:33:15.625Z,3.90
2022-08-05T00:36:16.400Z,4.00
2022-08-05T00:38:45.573Z,3.58
2022-08-05T00:41:13.409Z,3.80
2022-08-05T00:43:47.174Z,3.92
2022-08-05T00:46:17.152Z,3.60
2022-08-05T00:49:04.798Z,3.63
2022-08-05T00:51:51.751Z,3.80
2022-08-05T00:54:19.379Z,3.95
2022-08-05T00:56:51.592Z,3.85
2022-08-05T00:59:18.764Z,3.47
2022-08-05T01:01:48.695Z,3.90
2022-08-05T01:04:16.180Z,3.25
2022-08-05T01:06:49.054Z,3.45
2022-08-05T01:09:20.283Z,3.85
2022-08-05T01:11:50.845Z,3.70
2022-08-05T01:14:27.948Z,3.50
2022-08-05T01:17:07.026Z,3.78
2022-08-05T01:20:02.340Z,3.50
2022-08-05T01:22:57.428Z,3.78
2022-08-05T01:25:53.242Z,3.55
2022-08-05T01:28:39.436Z,3.78
2022-08-05T01:31:14.062Z,3.50
2022-08-05T01:33:53.644Z,3.72
2022-08-05T01:36:28.338Z,3.40
2022-08-05T01:38:56.915Z,4.38
2022-08-05T01:41:32.219Z,4.30
2022-08-05T01:44:01.684Z,3.75
2022-08-05T01:46:42.691Z,3.45
2022-08-05T01:49:22.965Z,3.63
2022-08-05T01:51:54.011Z,3.22
2022-08-05T01:54:25.687Z,3.40
2022-08-05T01:58:09.487Z,3.47
2022-08-05T01:59:49.130Z,3.58
2022-08-05T02:02:17.756Z,5.95
2022-08-05T02:04:49.436Z,3.70
2022-08-05T02:07:21.622Z,3.10
2022-08-05T02:09:50.126Z,3.47
2022-08-05T02:12:25.797Z,3.28
2022-08-05T02:15:03.625Z,3.28
2022-08-05T02:18:32.993Z,3.42
2022-08-05T02:20:30.593Z,3.55
2022-08-05T02:23:10.934Z,3.17
2022-08-05T02:25:49.803Z,3.05
2022-08-05T02:28:28.941Z,3.53
2022-08-05T02:31:07.928Z,4.00
2022-08-05T02:33:48.857Z,3.33
2022-08-05T02:36:27.504Z,4.13
2022-08-05T02:38:56.884Z,3.60
2022-08-05T02:41:28.946Z,3.35
2022-08-05T02:44:11.899Z,3.20
2022-08-05T02:46:53.340Z,3.53
2022-08-05T02:49:35.701Z,3.28
2022-08-05T02:52:08.001Z,3.55
2022-08-05T02:54:37.913Z,3.47
2022-08-05T02:58:09.161Z,3.70
2022-08-05T03:00:01.459Z,3.40
2022-08-05T03:02:31.684Z,3.40
2022-08-05T03:04:59.777Z,3.47
2022-08-05T03:07:59.467Z,3.42
2022-08-05T03:10:22.088Z,3.33
2022-08-05T03:12:54.224Z,3.33
2022-08-05T03:15:23.804Z,3.50
2022-08-05T03:17:55.993Z,3.60
2022-08-05T03:20:24.900Z,3.75
2022-08-05T03:22:57.372Z,3.40
2022-08-05T03:25:33.145Z,3.47
2022-08-05T03:28:14.369Z,3.38
2022-08-05T03:30:47.528Z,3.80
2022-08-05T03:33:14.677Z,3.65
2022-08-05T03:35:42.249Z,3.97
2022-08-05T03:38:14.494Z,3.67
2022-08-05T03:40:45.304Z,3.60
2022-08-05T03:44:08.499Z,3.75
2022-08-05T03:46:04.951Z,3.50
2022-08-05T03:48:35.632Z,3.92
2022-08-05T03:52:38.978Z,3.70
2022-08-05T03:55:51.303Z,4.80
2022-08-05T03:57:16.255Z,4.03
2022-08-05T03:59:54.786Z,4.00
2022-08-05T04:02:39.023Z,4.03
2022-08-05T04:05:12.990Z,3.70
2022-08-05T04:07:58.080Z,3.65
2022-08-05T04:10:37.166Z,3.40
2022-08-05T04:13:07.747Z,3.40
2022-08-05T04:15:36.490Z,3.65
2022-08-05T04:18:09.372Z,3.40
2022-08-05T04:20:37.488Z,4.55
2022-08-05T04:23:04.713Z,3.38
2022-08-05T04:25:49.423Z,3.92
2022-08-05T04:28:30.552Z,3.97
2022-08-05T04:30:58.926Z,4.00
2022-08-05T04:33:54.328Z,3.50
2022-08-05T04:36:49.483Z,3.65
2022-08-05T04:39:04.428Z,3.58
2022-08-05T04:41:37.282Z,3.67
2022-08-05T04:44:08.900Z,3.80
2022-08-05T04:46:37.957Z,4.30
2022-08-05T04:49:12.406Z,3.83
2022-08-05T04:51:44.264Z,3.60
2022-08-05T04:54:12.195Z,3.88
2022-08-05T04:56:39.474Z,4.32
2022-08-05T04:59:23.996Z,3.83
2022-08-05T05:02:06.811Z,3.67
2022-08-05T05:04:47.532Z,3.53
2022-08-05T05:07:17.069Z,3.63
2022-08-05T05:09:45.620Z,3.78
2022-08-05T05:12:12.540Z,3.65
2022-08-05T05:14:42.714Z,3.80
2022-08-05T05:17:23.473Z,3.50
2022-08-05T05:19:56.448Z,3.92
2022-08-05T05:22:26.502Z,3.55
2022-08-05T05:24:59.114Z,4.07
2022-08-05T05:27:44.166Z,3.85
2022-08-05T05:30:15.350Z,3.22
2022-08-05T05:32:56.505Z,3.45
2022-08-05T05:35:23.434Z,3.75
2022-08-05T05:37:59.511Z,3.97
2022-08-05T05:40:32.114Z,3.90
2022-08-05T05:43:00.104Z,3.65
2022-08-05T05:45:29.736Z,3.65
2022-08-05T05:48:07.166Z,3.65
2022-08-05T05:50:43.934Z,3.63
2022-08-05T05:53:22.571Z,3.60
2022-08-05T05:55:52.264Z,3.28
2022-08-05T05:58:31.963Z,3.30
2022-08-05T06:01:13.011Z,3.42
2022-08-05T06:04:00.416Z,3.70
2022-08-05T06:06:33.022Z,3.47
2022-08-05T06:09:03.933Z,3.17
2022-08-05T06:11:31.893Z,3.40
2022-08-05T06:14:00.341Z,2.72
2022-08-05T06:16:36.687Z,3.10
2022-08-05T06:19:07.069Z,3.35
2022-08-05T06:21:37.556Z,3.08
2022-08-05T06:24:07.747Z,2.95
2022-08-05T06:26:39.065Z,3.13
2022-08-05T06:29:23.610Z,3.13
2022-08-05T06:31:53.336Z,3.03
2022-08-05T06:34:20.407Z,3.13
2022-08-05T06:36:57.173Z,3.40
2022-08-05T06:39:27.702Z,3.25
2022-08-05T06:42:02.008Z,3.05
2022-08-05T06:44:31.797Z,3.60
2022-08-05T06:46:58.761Z,2.80
2022-08-05T06:50:00.424Z,3.67
2022-08-05T06:52:36.951Z,3.88
2022-08-05T06:55:03.166Z,2.97
2022-08-05T06:57:57.521Z,3.20
2022-08-05T07:00:22.240Z,3.35
2022-08-05T07:02:53.818Z,3.10
2022-08-05T07:05:24.612Z,3.17
2022-08-05T07:08:04.357Z,3.05
2022-08-05T07:10:32.417Z,2.80
2022-08-05T07:13:56.718Z,3.40
2022-08-05T07:17:56.237Z,3.50
2022-08-05T07:19:11.017Z,3.13
2022-08-05T07:21:59.867Z,3.55
2022-08-05T07:24:28.759Z,2.85
2022-08-05T07:26:57.248Z,3.20
2022-08-05T07:30:22.196Z,3.30
2022-08-05T07:32:12.400Z,3.42
2022-08-05T07:34:42.390Z,3.63
2022-08-05T07:37:11.576Z,3.40
2022-08-05T07:40:04.073Z,3.70
2022-08-05T07:42:31.830Z,3.47
2022-08-05T07:45:01.303Z,3.35
2022-08-05T07:47:41.937Z,3.40
2022-08-05T07:50:10.261Z,3.15
2022-08-05T07:52:42.186Z,3.40
2022-08-05T07:55:44.619Z,3.47
2022-08-05T07:58:03.200Z,3.60
2022-08-05T08:00:31.424Z,3.53
2022-08-05T08:03:15.004Z,3.45
2022-08-05T08:05:47.642Z,3.70
2022-08-05T08:08:20.056Z,3.65
2022-08-05T08:10:48.715Z,3.60
2022-08-05T08:13:22.137Z,3.70
2022-08-05T08:16:35.296Z,3.92
2022-08-05T08:18:43.551Z,3.78
2022-08-05T08:21:17.878Z,4.00
2022-08-05T08:24:01.800Z,4.13
2022-08-05T08:26:32.625Z,3.67
2022-08-05T08:29:09.755Z,3.70
2022-08-05T08:31:48.252Z,3.72
2022-08-05T08:34:16.968Z,3.75
2022-08-05T08:36:50.198Z,3.65
2022-08-05T08:39:20.549Z,3.70
2022-08-05T08:41:52.144Z,3.40
2022-08-05T08:45:18.982Z,3.67
2022-08-05T08:48:06.847Z,4.95
2022-08-05T08:51:03.523Z,4.13
2022-08-05T08:53:12.007Z,7.20
2022-08-05T08:56:04.574Z,3.90
2022-08-05T08:58:37.445Z,3.70
2022-08-05T09:01:17.129Z,4.53
2022-08-05T09:03:58.374Z,3.70
2022-08-05T09:06:30.880Z,3.75
2022-08-05T09:09:00.519Z,3.60
2022-08-05T09:11:51.135Z,4.35
2022-08-05T09:14:56.509Z,4.15
2022-08-05T09:17:16.181Z,3.50
2022-08-05T09:20:02.612Z,4.28
2022-08-05T09:23:05.475Z,3.67
2022-08-05T09:26:00.031Z,3.83
2022-08-05T09:28:24.518Z,4.30
2022-08-05T09:31:22.638Z,3.55
2022-08-05T09:34:13.022Z,3.50
2022-08-05T09:36:54.084Z,3.38
2022-08-05T09:39:41.228Z,3.90
2022-08-05T09:42:17.763Z,3.70
2022-08-05T09:44:55.979Z,4.05
2022-08-05T09:47:29.481Z,3.63
2022-08-05T09:50:13.794Z,2.95
2022-08-05T09:52:45.825Z,3.00
2022-08-05T09:55:58.679Z,3.28
2022-08-05T09:58:09.428Z,3.33
2022-08-05T10:00:38.487Z,3.00
2022-08-05T10:03:10.738Z,3.33
2022-08-05T10:05:39.060Z,3.33
2022-08-05T10:08:10.802Z,3.45
2022-08-05T10:10:54.884Z,3.67
2022-08-05T10:13:47.475Z,3.47
2022-08-05T10:16:34.097Z,2.80
2022-08-05T10:19:04.317Z,3.13
2022-08-05T10:21:40.464Z,3.28
2022-08-05T10:24:15.146Z,2.80
2022-08-05T10:26:51.810Z,3.42
2022-08-05T10:30:05.744Z,3.33
2022-08-05T10:32:52.512Z,3.83
2022-08-05T10:35:01.000Z,3.40
2022-08-05T10:37:41.323Z,3.58
2022-08-05T10:40:58.137Z,3.08
2022-08-05T10:43:35.864Z,3.10
2022-08-05T10:46:09.677Z,3.58
2022-08-05T10:48:56.719Z,3.45
2022-08-05T10:51:29.128Z,3.35
2022-08-05T10:54:01.669Z,3.60
2022-08-05T10:56:45.499Z,3.10
2022-08-05T11:00:02.483Z,3.75
2022-08-05T11:02:38.422Z,3.55
2022-08-05T11:05:05.999Z,3.40
2022-08-05T11:08:02.593Z,3.78
2022-08-05T11:10:29.320Z,3.83
2022-08-05T11:12:57.856Z,3.28
2022-08-05T11:16:00.045Z,3.72
2022-08-05T11:18:34.061Z,3.28
2022-08-05T11:21:06.338Z,3.25
2022-08-05T11:24:04.503Z,3.00
2022-08-05T11:26:40.433Z,3.00
2022-08-05T11:29:36.087Z,3.63
2022-08-05T11:32:24.469Z,3.30
2022-08-05T11:34:54.192Z,3.00
2022-08-05T11:38:36.741Z,3.25
2022-08-05T11:41:36.857Z,2.97
2022-08-05T11:44:06.777Z,2.97
2022-08-05T11:46:35.192Z,3.67
2022-08-05T11:49:03.840Z,3.15
2022-08-05T11:51:44.794Z,3.08
2022-08-05T11:54:33.341Z,3.20
2022-08-05T11:57:07.893Z,3.08
2022-08-05T11:59:50.798Z,2.58
2022-08-05T12:02:29.686Z,2.78
2022-08-05T12:05:07.558Z,2.38
2022-08-05T12:08:09.591Z,2.60
2022-08-05T12:10:38.638Z,2.17
2022-08-05T12:13:16.702Z,2.78
2022-08-05T12:15:50.284Z,2.90
2022-08-05T12:18:19.071Z,2.72
2022-08-05T12:20:48.015Z,3.05
2022-08-05T12:23:16.289Z,3.10
2022-08-05T12:25:53.845Z,3.00
2022-08-05T12:28:34.581Z,2.78
2022-08-05T12:31:04.690Z,2.63
2022-08-05T12:33:37.065Z,3.00
2022-08-05T12:36:08.799Z,3.00
2022-08-05T12:38:39.638Z,2.88
2022-08-05T12:41:12.859Z,2.65
2022-08-05T12:43:52.976Z,2.55
2022-08-05T12:46:31.376Z,2.85
2022-08-05T12:49:13.045Z,2.80
2022-08-05T12:52:14.065Z,2.72
2022-08-05T12:54:40.979Z,2.78
2022-08-05T12:57:13.277Z,2.55
2022-08-05T13:01:56.832Z,2.90
2022-08-05T13:02:37.184Z,2.72
2022-08-05T13:05:07.803Z,2.67
2022-08-05T13:07:59.516Z,2.83
2022-08-05T13:10:24.105Z,3.10
2022-08-05T13:12:58.089Z,2.67
2022-08-05T13:15:41.401Z,3.33
2022-08-05T13:18:19.756Z,2.88
2022-08-05T13:20:49.783Z,3.30
2022-08-05T13:23:22.816Z,2.60
2022-08-05T13:25:59.394Z,2.63
2022-08-05T13:28:29.165Z,2.92
2022-08-05T13:30:59.999Z,2.50
2022-08-05T13:34:22.810Z,2.38
2022-08-05T13:36:25.080Z,2.85
2022-08-05T13:38:52.145Z,3.00
2022-08-05T13:41:19.220Z,3.15
2022-08-05T13:43:54.482Z,2.90
2022-08-05T13:46:44.275Z,2.90
2022-08-05T13:49:12.959Z,2.92
2022-08-05T13:51:46.198Z,2.60
2022-08-05T13:54:16.994Z,2.80
2022-08-05T13:56:51.689Z,2.97
2022-08-05T13:59:24.392Z,2.60
2022-08-05T14:01:58.090Z,2.67
2022-08-05T14:04:51.892Z,2.97
2022-08-05T14:07:56.996Z,2.72
2022-08-05T14:10:18.929Z,2.80
2022-08-05T14:12:55.626Z,3.08
2022-08-05T14:16:05.437Z,2.83
2022-08-05T14:18:14.674Z,2.90
2022-08-05T14:20:48.576Z,2.67
2022-08-05T14:23:25.169Z,3.08
2022-08-05T14:25:57.796Z,2.90
2022-08-05T14:28:30.164Z,2.78
2022-08-05T14:31:00.772Z,2.97
2022-08-05T14:33:56.416Z,2.50
2022-08-05T14:36:21.456Z,2.63
2022-08-05T14:38:50.134Z,2.78
2022-08-05T14:41:18.581Z,2.70
2022-08-05T14:43:57.620Z,2.63
2022-08-05T14:46:30.837Z,3.00
2022-08-05T14:49:06.400Z,3.08
2022-08-05T14:51:37.626Z,3.00
2022-08-05T14:54:26.844Z,2.97
2022-08-05T14:56:56.371Z,3.13
2022-08-05T14:59:23.748Z,2.90
2022-08-05T15:01:51.000Z,2.85
2022-08-05T15:04:20.446Z,2.83
2022-08-05T15:06:51.087Z,2.83
2022-08-05T15:09:52.045Z,3.30
2022-08-05T15:12:09.457Z,2.50
2022-08-05T15:14:42.242Z,2.60
2022-08-05T15:17:46.954Z,3.17
2022-08-05T15:20:05.020Z,3.13
2022-08-05T15:22:32.184Z,2.85
2022-08-05T15:24:59.338Z,2.85
2022-08-05T15:27:26.708Z,2.85
2022-08-05T15:30:04.669Z,3.10
2022-08-05T15:32:33.118Z,3.15
2022-08-05T15:35:00.048Z,2.78
2022-08-05T15:38:34.763Z,2.80
2022-08-05T15:40:58.831Z,2.65
2022-08-05T15:43:20.604Z,3.03
2022-08-05T15:46:00.179Z,3.25
2022-08-05T15:48:28.761Z,3.65
2022-08-05T15:50:56.682Z,6.57
2022-08-05T15:53:26.325Z,7.15
2022-08-05T15:56:02.857Z,5.60
2022-08-05T15:58:35.716Z,3.08
2022-08-05T16:01:16.640Z,3.35
2022-08-05T16:03:50.300Z,3.00
2022-08-05T16:06:19.589Z,2.85
2022-08-05T16:08:51.142Z,3.10
2022-08-05T16:11:39.931Z,4.95
2022-08-05T16:14:09.093Z,5.65
2022-08-05T16:16:37.123Z,6.20
2022-08-05T16:19:05.044Z,5.80
2022-08-05T16:22:00.799Z,6.47
2022-08-05T16:24:39.827Z,5.78
2022-08-05T16:27:07.642Z,6.60
2022-08-05T16:29:37.498Z,5.65
2022-08-05T16:32:09.997Z,5.97
2022-08-05T16:34:39.421Z,6.10
2022-08-05T16:38:01.942Z,6.03
2022-08-05T16:40:04.944Z,6.10
2022-08-05T16:42:35.311Z,5.93
2022-08-05T16:46:02.906Z,6.10
2022-08-05T16:47:55.452Z,5.72
2022-08-05T16:50:25.626Z,5.30
2022-08-05T16:52:52.650Z,4.43
2022-08-05T16:55:20.336Z,4.10
2022-08-05T16:58:00.252Z,4.28
2022-08-05T17:00:34.955Z,4.60
2022-08-05T17:03:15.128Z,3.70
2022-08-05T17:05:51.501Z,3.35
2022-08-05T17:08:36.503Z,3.10
2022-08-05T17:11:12.595Z,3.72
2022-08-05T17:13:45.209Z,3.03
2022-08-05T17:16:32.673Z,4.07
2022-08-05T17:19:00.684Z,3.78
2022-08-05T17:21:36.327Z,3.20
2022-08-05T17:24:19.348Z,3.42
2022-08-05T17:26:53.747Z,2.92
2022-08-05T17:29:33.868Z,3.60
2022-08-05T17:32:16.821Z,3.00
2022-08-05T17:34:48.531Z,3.08
2022-08-05T17:37:39.867Z,2.80
2022-08-05T17:40:10.289Z,2.78
2022-08-05T17:42:41.598Z,3.10
2022-08-05T17:45:20.129Z,3.00
2022-08-05T17:47:53.522Z,2.95
2022-08-05T17:50:28.435Z,3.10
2022-08-05T17:52:58.975Z,3.10
2022-08-05T17:55:38.331Z,2.75
2022-08-05T17:58:10.897Z,2.80
2022-08-05T18:00:45.456Z,3.05
2022-08-05T18:03:56.575Z,2.92
2022-08-05T18:06:11.331Z,3.08
2022-08-05T18:08:44.836Z,3.30
2022-08-05T18:11:23.975Z,3.38
2022-08-05T18:13:53.712Z,3.22
2022-08-05T18:16:21.135Z,3.72
2022-08-05T18:18:49.916Z,7.97
2022-08-05T18:21:21.172Z,5.28
2022-08-05T18:23:53.462Z,4.85
2022-08-05T18:26:27.506Z,4.78
2022-08-05T18:28:58.289Z,3.83
2022-08-05T18:31:26.078Z,3.85
2022-08-05T18:34:01.937Z,3.88
2022-08-05T18:36:29.509Z,3.38
2022-08-05T18:38:56.656Z,3.70
2022-08-05T18:41:58.336Z,3.10
2022-08-05T18:44:12.864Z,3.35
2022-08-05T18:46:41.267Z,3.25
2022-08-05T18:49:30.491Z,3.28
2022-08-05T18:52:16.659Z,4.15
2022-08-05T18:54:45.908Z,3.80
2022-08-05T18:57:15.414Z,4.38
2022-08-05T19:00:02.534Z,3.63
2022-08-05T19:02:30.389Z,3.63
2022-08-05T19:05:02.900Z,3.88
2022-08-05T19:07:49.726Z,3.88
2022-08-05T19:10:28.046Z,3.47
2022-08-05T19:12:57.335Z,4.25
2022-08-05T19:15:56.588Z,3.70
2022-08-05T19:18:21.900Z,3.63
2022-08-05T19:20:52.356Z,3.45
2022-08-05T19:24:04.095Z,3.30
2022-08-05T19:26:08.471Z,3.40
2022-08-05T19:28:42.274Z,3.20
2022-08-05T19:31:13.001Z,3.35
2022-08-05T19:33:48.632Z,3.42
2022-08-05T19:36:25.885Z,3.22
2022-08-05T19:38:55.098Z,3.20
2022-08-05T19:42:05.661Z,3.00
2022-08-05T19:44:17.405Z,2.92
2022-08-05T19:46:45.809Z,3.28
2022-08-05T19:49:16.858Z,2.92
2022-08-05T19:52:04.246Z,2.75
2022-08-05T19:54:35.291Z,3.13
2022-08-05T19:57:06.732Z,2.75
2022-08-05T19:59:54.728Z,2.80
2022-08-05T20:02:30.443Z,3.20
2022-08-05T20:04:59.716Z,2.78
2022-08-05T20:07:46.618Z,2.70
2022-08-05T20:10:16.710Z,2.55
2022-08-05T20:12:47.709Z,2.58
2022-08-05T20:15:48.987Z,3.40
2022-08-05T20:18:09.824Z,2.40
2022-08-05T20:20:49.599Z,2.83
2022-08-05T20:23:16.628Z,3.15
2022-08-05T20:25:47.489Z,3.15
2022-08-05T20:28:16.417Z,2.95
2022-08-05T20:30:43.508Z,3.03
2022-08-05T20:33:10.505Z,2.83
2022-08-05T20:35:40.510Z,3.03
2022-08-05T20:38:20.158Z,2.97
2022-08-05T20:40:55.398Z,3.35
2022-08-05T20:43:57.376Z,3.25
2022-08-05T20:46:18.507Z,2.97
2022-08-05T20:48:52.159Z,3.28
2022-08-05T20:51:19.380Z,3.75
2022-08-05T20:53:56.262Z,3.63
2022-08-05T20:56:31.828Z,3.15
2022-08-05T20:59:14.356Z,3.33
2022-08-05T21:01:51.777Z,3.25
2022-08-05T21:04:19.425Z,3.42
2022-08-05T21:06:46.818Z,3.88
2022-08-05T21:09:15.099Z,3.25
2022-08-05T21:12:10.519Z,3.65
2022-08-05T21:14:34.587Z,3.60
2022-08-05T21:17:06.076Z,3.30
2022-08-05T21:19:46.742Z,4.10
2022-08-05T21:22:18.504Z,3.75
2022-08-05T21:24:51.657Z,3.75
2022-08-05T21:27:25.347Z,3.72
2022-08-05T21:29:56.108Z,3.15
2022-08-05T21:32:30.942Z,3.67
2022-08-05T21:35:16.968Z,3.60
2022-08-05T21:37:52.957Z,3.83
2022-08-05T21:40:23.131Z,3.70
2022-08-05T21:42:52.674Z,3.47
2022-08-05T21:45:25.057Z,4.07
2022-08-05T21:48:09.777Z,3.83
2022-08-05T21:50:37.506Z,3.22
2022-08-05T21:53:17.591Z,3.70
2022-08-05T21:56:05.441Z,4.00
2022-08-05T21:58:32.531Z,4.40
2022-08-05T22:01:04.423Z,3.60
2022-08-05T22:03:48.552Z,3.83
2022-08-05T22:06:22.611Z,3.50
2022-08-05T22:08:52.160Z,3.63
2022-08-05T22:11:35.036Z,3.75
2022-08-05T22:14:20.001Z,4.07
2022-08-05T22:16:53.171Z,3.97
2022-08-05T22:20:01.194Z,3.70
2022-08-05T22:22:12.272Z,3.65
2022-08-05T22:25:00.619Z,4.15
2022-08-05T22:28:08.610Z,4.10
2022-08-05T22:30:34.972Z,3.92
2022-08-05T22:33:02.978Z,3.83
2022-08-05T22:35:35.664Z,3.90
2022-08-05T22:38:15.631Z,3.80
2022-08-05T22:40:49.970Z,3.55
2022-08-05T22:43:37.373Z,3.85
2022-08-05T22:46:13.140Z,4.00
2022-08-05T22:48:50.967Z,3.20
2022-08-05T22:51:23.208Z,3.22
2022-08-05T22:54:05.968Z,3.15
2022-08-05T22:56:32.893Z,3.47
2022-08-05T22:59:03.944Z,3.50
2022-08-05T23:02:04.930Z,3.97
2022-08-05T23:04:33.401Z,3.85
2022-08-05T23:07:00.611Z,8.30
2022-08-05T23:09:57.437Z,5.00
2022-08-05T23:12:17.820Z,4.50
2022-08-05T23:14:45.060Z,3.55
2022-08-05T23:17:34.917Z,3.45
2022-08-05T23:20:16.326Z,3.85
2022-08-05T23:22:47.681Z,3.03
2022-08-05T23:25:50.923Z,2.95
2022-08-05T23:28:07.231Z,3.97
2022-08-05T23:30:40.072Z,3.10
2022-08-05T23:33:16.001Z,3.35
2022-08-05T23:35:51.069Z,3.53
2022-08-05T23:38:18.348Z,3.40
2022-08-05T23:40:50.147Z,3.72
2022-08-05T23:43:25.764Z,3.38
2022-08-05T23:46:20.262Z,3.47
2022-08-05T23:49:00.699Z,3.50
2022-08-05T23:51:53.775Z,3.75
2022-08-05T23:54:29.918Z,3.65
2022-08-05T23:57:03.466Z,3.45
